x

Halibut Bank (46146) Wave Buoy

7:00 - Mon 26th Sep 2016 All times are PDT. -7 hours from GMT.

  • Sig Wave height 0.7ft
  • Peak Period 2s
  • Wind
    9mph, 11mph gusts
  • Sea Temp 57°f
  • Luft Temp 56°f
  • Sea Pressure 1021.5mb
  • Halibut Bank
  • Halibut Bank

More Historic Weather Station data

Upgrade to MSW Pro to gain access to the past 30 days of data for over 8000 Wavebouys and Weather Stations around the globe.

Join Pro

Comparision Forecast

View Surf forecast
   
Mo 09/26 7:00 0.7ft 2s 9 11 mph 1021.5mb 57f 56f
6:00 0.7ft 3s 11 13 mph 1021.9mb 57f 56f
5:00 0.7ft 3s 7 9 mph 1022.2mb 57f 55f
4:00 0.7ft 3s 9 11 mph 1022.6mb 57f 56f
3:00 1ft 3s 9 11 mph 1023.3mb 57f 56f
2:00 1.3ft 3s 11 13 mph 1024.1mb 57f 56f
1:00 1ft 2s 11 13 mph 1025.1mb 57f 57f
12:00 0.7ft 3s 11 13 mph 1025.6mb 57f 57f
So 09/25 11:00 0.3ft 3s 4 7 mph 1026mb 57f 58f
10:00 0.3ft 3s 7 9 mph 1026.4mb 57f 58f
9:00 0.3ft 6s 7 9 mph 1026.8mb 57f 58f
8:00 0.3ft 4s 4 7 mph 1027.1mb 57f 58f
7:00 0.3ft 4s 7
mph
1027.4mb 57f 57f
6:00 0.3ft 6s 4 7 mph 1027.8mb 57f 57f
5:00 0.7ft 6s 2 4 mph 1028.4mb 57f 58f
4:00 0.7ft 3s 4
mph
1029.3mb 57f 58f
3:00 0.7ft 3s 4 7 mph 1029.6mb 57f 58f
2:00 0.7ft 3s 4 7 mph 1030.1mb 57f 58f
1:00 1ft 3s 7 9 mph 1030.3mb 57f 58f
12:00 1ft 3s 9 11 mph 1030.2mb 57f 58f
11:00 1ft 3s 9 11 mph 1030.5mb 58f 58f
10:00 1.3ft 3s 11 13 mph 1030.2mb 58f 57f
9:00 1ft 3s 9 11 mph 1030.2mb 58f 57f
8:00 1ft 2s 9 11 mph 1029.9mb 57f 57f
7:00 1ft 2s 9 11 mph 1029.6mb 57f 58f
6:00 1ft 2s 9 13 mph 1029.2mb 57f 58f
5:00 1ft 3s 11 13 mph 1028.8mb 57f 58f
4:00 1ft 3s 4 7 mph 1029mb 57f 57f
3:00 1ft 3s 7 9 mph 1028.7mb 58f 56f
2:00 1ft 3s 11 16 mph 1029.2mb 58f 56f
1:00 1ft 2s 13 16 mph 1029.2mb 58f 56f
12:00 0.7ft 2s 11 13 mph 1029.3mb 58f 57f
Sa 09/24 11:00 0.3ft 6s 7
mph
1029.5mb 58f 56f
10:00 0.3ft 2s 4
mph
1029.2mb 58f 56f
9:00 0.3ft 2s 4 7 mph 1029.2mb 58f 57f
8:00 0.3ft 2s 4 9 mph 1028.8mb 58f 57f
7:00 0.7ft 2s 9
mph
1027.8mb 58f 58f
6:00 0.7ft 2s 9 11 mph 1027.6mb 58f 58f
5:00 0.7ft 2s 9 11 mph 1027.8mb 58f 57f
4:00 0.7ft 2s 9 11 mph 1028.1mb 58f 57f
3:00 0.7ft 2s 11 13 mph 1027.8mb 58f 57f
2:00 0.3ft 2s 11 13 mph 1028.3mb 58f 56f
1:00 0.3ft 3s 9 11 mph 1028.9mb 58f 56f
12:00 0.3ft 2s 7 9 mph 1028.9mb 58f 55f
11:00 0.3ft 3s 9 11 mph 1029.3mb 58f 55f
10:00 0.3ft 3s 7 9 mph 1029mb 57f 55f
9:00 0.3ft 2s 7 9 mph 1028.3mb 57f 54f
8:00 0.3ft 2s 4 7 mph 1027.4mb 57f 54f
7:00 0.3ft 3s 2 4 mph 1027mb 57f 53f
6:00 0.7ft 3s 7 9 mph 1026.6mb 57f 53f
5:00 1ft 3s 7
mph
1025.7mb 58f 53f
4:00 1.3ft 3s 13 16 mph 1024.9mb 58f 55f
3:00 1.3ft 3s 13 16 mph 1024.2mb 58f 55f
2:00 1.3ft 4s 13 16 mph 1023.7mb 58f 55f
1:00 1.3ft 3s 16 18 mph 1023.1mb 57f 55f
12:00 1ft 3s 13 18 mph 1022.1mb 57f 56f
Fr 09/23 11:00 1ft 3s 13 16 mph 1021.4mb 57f 56f
10:00 1ft 3s 16 18 mph 1021.1mb 57f 56f
9:00 1ft 2s 16
mph
1020.5mb 57f 56f
8:00 1ft 2s 11 13 mph 1019.5mb 57f 55f
7:00 1.3ft 3s 7 13 mph 1018.5mb 58f 55f
6:00 2ft 4s 9 11 mph 1017.5mb 58f 55f
5:00 2ft 4s 13 16 mph 1016.7mb 58f 55f
4:00 2.5ft 4s 16 18 mph 1015.8mb 58f 55f
3:00 2.5ft 3s 18 20 mph 1014.9mb 58f 55f
2:00 2.5ft 4s 22 27 mph 1014.1mb 58f 55f
1:00 2.5ft 4s 22 27 mph 1014mb 58f 55f
12:00 3ft 4s 22 29 mph 1013.7mb 58f 54f
11:00 3ft 4s 22 25 mph 1013.6mb 58f 55f
10:00 3ft 4s 25 31 mph 1013.6mb 58f 56f
9:00 3ft 4s 27 31 mph 1013.4mb 58f 55f
8:00 2.5ft 3s 25 27 mph 1014.2mb 58f 55f
7:00 2.5ft 4s 20 25 mph 1014.9mb 58f 56f
6:00 2.5ft 3s 20 25 mph 1015.1mb 59f 56f
5:00 2.5ft 4s 20 25 mph 1015.4mb 59f 57f
4:00 2.5ft 4s 18 20 mph 1016.1mb 59f 57f
3:00 2.5ft 4s 18 20 mph 1016.3mb 59f 58f
2:00 3ft 4s 20 25 mph 1016mb 59f 58f
1:00 3ft 4s 22 27 mph 1015.2mb 60f 58f
12:00 2.5ft 4s 22 27 mph 1014.9mb 59f 59f
Do 09/22 11:00 2ft 3s 20 25 mph 1014.6mb 60f 60f
10:00 2ft 3s 18 22 mph 1014.4mb 60f 60f
9:00 1.3ft 3s 16 18 mph 1015.1mb 60f 60f
8:00 1ft 2s 16 18 mph 1015mb 60f 60f
7:00 0.7ft 2s 11 13 mph 1015.3mb 60f 59f
6:00 0.3ft 2s 9 11 mph 1015.5mb 60f 60f
5:00 0.3ft 6s 11 13 mph 1015.2mb 60f 59f
4:00 0.3ft 4s 11
mph
1016.1mb 61f 59f